createdAt,value
2022-09-17T00:08:13.865Z,11.84
2022-09-17T00:18:37.040Z,11.85
2022-09-17T00:28:59.424Z,11.85
2022-09-17T00:39:21.009Z,11.72
2022-09-17T00:49:43.268Z,11.65
2022-09-17T01:00:06.539Z,11.54
2022-09-17T01:11:01.629Z,11.63
2022-09-17T01:21:41.035Z,11.59
2022-09-17T01:32:12.338Z,11.44
2022-09-17T01:42:40.074Z,11.37
2022-09-17T01:53:04.491Z,11.45
2022-09-17T02:03:31.986Z,11.49
2022-09-17T02:14:15.196Z,11.42
2022-09-17T02:24:41.264Z,11.47
2022-09-17T02:35:02.926Z,11.43
2022-09-17T02:45:43.214Z,11.48
2022-09-17T02:56:20.534Z,11.28
2022-09-17T03:06:45.784Z,11.12
2022-09-17T03:17:07.661Z,11.16
2022-09-17T03:27:29.012Z,11.13
2022-09-17T03:37:50.479Z,11.02
2022-09-17T03:48:11.966Z,10.73
2022-09-17T03:58:33.702Z,10.79
2022-09-17T04:08:55.098Z,10.68
2022-09-17T04:19:16.609Z,10.54
2022-09-17T04:29:38.064Z,10.52
2022-09-17T04:39:59.686Z,10.49
2022-09-17T04:50:22.088Z,10.72
2022-09-17T05:00:43.599Z,10.74
2022-09-17T05:11:05.209Z,10.56
2022-09-17T05:21:26.700Z,10.34
2022-09-17T05:31:48.234Z,10.22
2022-09-17T05:42:09.760Z,10.14
2022-09-17T05:52:31.205Z,10.16
2022-09-17T06:02:57.764Z,9.98
2022-09-17T06:13:20.583Z,10.21
2022-09-17T06:23:43.472Z,10.27
2022-09-17T06:34:05.622Z,10.35
2022-09-17T06:44:27.148Z,10.63
2022-09-17T06:54:48.607Z,11.03
2022-09-17T07:05:10.145Z,11.25
2022-09-17T07:15:31.617Z,11.53
2022-09-17T07:25:58.508Z,11.96
2022-09-17T07:36:20.477Z,12.22
2022-09-17T07:46:42.173Z,12.44
2022-09-17T07:57:04.232Z,12.78
2022-09-17T08:07:26.049Z,13.03
2022-09-17T08:17:47.970Z,13.42
2022-09-17T08:28:09.410Z,13.86
2022-09-17T08:38:37.709Z,13.95
2022-09-17T08:49:11.717Z,13.70
2022-09-17T08:59:41.322Z,13.58
2022-09-17T09:10:06.079Z,13.48
2022-09-17T09:20:48.481Z,13.36
2022-09-17T09:31:48.837Z,13.45
2022-09-17T09:42:19.656Z,12.52
2022-09-17T09:53:18.944Z,12.35
2022-09-17T10:03:42.326Z,11.93
2022-09-17T10:14:24.279Z,12.76
2022-09-17T10:24:46.365Z,13.01
2022-09-17T10:35:17.078Z,13.28
2022-09-17T10:45:44.513Z,13.65
2022-09-17T10:56:08.215Z,13.68
2022-09-17T11:06:30.056Z,13.09
2022-09-17T11:17:11.488Z,12.57
2022-09-17T11:27:49.947Z,11.63
2022-09-17T11:38:24.233Z,11.45
2022-09-17T11:49:01.094Z,11.74
2022-09-17T11:59:53.676Z,11.89
2022-09-17T12:10:43.883Z,12.17
2022-09-17T12:21:08.776Z,12.13
2022-09-17T12:31:36.824Z,12.09
2022-09-17T12:42:19.719Z,12.45
2022-09-17T12:52:53.944Z,12.70
2022-09-17T13:03:34.619Z,13.51
2022-09-17T13:14:10.869Z,12.76
2022-09-17T13:24:33.830Z,12.45
2022-09-17T13:34:55.356Z,12.84
2022-09-17T13:45:19.120Z,12.65
2022-09-17T13:55:43.157Z,11.82
2022-09-17T14:06:04.622Z,12.06
2022-09-17T14:16:42.718Z,12.67
2022-09-17T14:27:22.979Z,13.12
2022-09-17T14:37:47.124Z,13.58
2022-09-17T14:48:29.210Z,14.19
2022-09-17T14:58:53.397Z,14.24
2022-09-17T15:09:18.989Z,13.47
2022-09-17T15:19:50.242Z,12.69
2022-09-17T15:30:14.841Z,12.40
2022-09-17T15:40:41.234Z,12.73
2022-09-17T15:51:06.896Z,13.63
2022-09-17T16:01:40.843Z,13.46
2022-09-17T16:12:02.506Z,13.35
2022-09-17T16:22:24.230Z,13.01
2022-09-17T16:32:46.435Z,13.56
2022-09-17T16:43:08.743Z,13.54
2022-09-17T16:53:30.176Z,13.40
2022-09-17T17:03:53.337Z,13.45
2022-09-17T17:14:15.074Z,13.18
2022-09-17T17:24:36.498Z,13.18
2022-09-17T17:34:58.210Z,13.00
2022-09-17T17:45:19.633Z,13.03
2022-09-17T17:55:41.057Z,12.83
2022-09-17T18:06:06.751Z,12.76
2022-09-17T18:16:29.430Z,12.61
2022-09-17T18:26:50.963Z,12.57
2022-09-17T18:37:12.433Z,12.49
2022-09-17T18:47:33.939Z,12.57
2022-09-17T18:57:55.431Z,12.48
2022-09-17T19:08:22.423Z,12.34
2022-09-17T19:18:43.937Z,12.21
2022-09-17T19:29:06.286Z,12.08
2022-09-17T19:39:27.798Z,11.98
2022-09-17T19:49:52.357Z,11.76
2022-09-17T20:00:14.704Z,11.81
2022-09-17T20:10:37.700Z,11.52
2022-09-17T20:20:59.188Z,11.53
2022-09-17T20:31:23.167Z,11.27
2022-09-17T20:41:44.766Z,11.24
2022-09-17T20:52:06.424Z,10.97
2022-09-17T21:02:28.302Z,10.96
2022-09-17T21:12:49.773Z,11.00
2022-09-17T21:23:11.215Z,11.12
2022-09-17T21:33:33.448Z,11.18
2022-09-17T21:43:55.041Z,11.06
2022-09-17T21:54:17.472Z,11.00
2022-09-17T22:04:38.923Z,10.67
2022-09-17T22:15:00.392Z,10.97
2022-09-17T22:25:21.849Z,10.78
2022-09-17T22:35:43.367Z,10.83
2022-09-17T22:46:17.327Z,10.68
2022-09-17T22:56:38.974Z,10.65
2022-09-17T23:07:00.520Z,10.73
2022-09-17T23:17:24.944Z,10.77
2022-09-17T23:27:50.386Z,10.60
2022-09-17T23:38:11.900Z,10.72
2022-09-17T23:48:33.433Z,10.69
2022-09-17T23:58:56.625Z,10.72
